sensor_id;sensor_type;location;lat;lon;timestamp;pressure;altitude;pressure_sealevel;temperature;humidity
62592;BME280;48659;41.622;2.276;2023-08-06T17:50:45;99900.16;;;21.20;55.78
62592;BME280;48659;41.622;2.276;2023-08-06T17:53:12;99901.26;;;21.29;53.85
62592;BME280;48659;41.622;2.276;2023-08-06T17:55:40;99906.10;;;22.64;50.36
62592;BME280;48659;41.622;2.276;2023-08-06T17:58:09;99905.21;;;22.31;51.19
62592;BME280;48659;41.622;2.276;2023-08-06T18:00:36;99901.51;;;24.59;47.00
62592;BME280;48659;41.622;2.276;2023-08-06T18:03:03;99902.77;;;24.77;45.80
62592;BME280;48659;41.622;2.276;2023-08-06T18:05:31;99903.72;;;25.44;44.41
62592;BME280;48659;41.622;2.276;2023-08-06T18:07:59;99907.97;;;25.73;44.13
62592;BME280;48659;41.622;2.276;2023-08-06T18:10:26;99911.70;;;24.60;45.52
62592;BME280;48659;41.622;2.276;2023-08-06T18:12:54;99912.23;;;25.45;43.68
62592;BME280;48659;41.622;2.276;2023-08-06T18:15:21;99912.67;;;25.87;42.88
62592;BME280;48659;41.622;2.276;2023-08-06T18:17:51;99913.56;;;26.62;41.61
62592;BME280;48659;41.622;2.276;2023-08-06T18:20:18;99913.33;;;26.42;41.84
62592;BME280;48659;41.622;2.276;2023-08-06T18:22:46;99916.65;;;26.34;41.87
62592;BME280;48659;41.622;2.276;2023-08-06T18:25:14;99912.45;;;26.69;41.43
62592;BME280;48659;41.622;2.276;2023-08-06T18:27:48;99917.34;;;25.87;42.97
62592;BME280;48659;41.622;2.276;2023-08-06T18:30:16;99926.25;;;25.72;43.56
62592;BME280;48659;41.622;2.276;2023-08-06T18:32:50;99923.74;;;26.10;42.34
62592;BME280;48659;41.622;2.276;2023-08-06T18:35:17;99922.98;;;26.45;41.98
62592;BME280;48659;41.622;2.276;2023-08-06T18:37:45;99923.25;;;26.32;41.94
62592;BME280;48659;41.622;2.276;2023-08-06T18:40:12;99924.48;;;26.66;41.23
62592;BME280;48659;41.622;2.276;2023-08-06T18:42:40;99927.48;;;26.24;41.78
62592;BME280;48659;41.622;2.276;2023-08-06T18:45:08;99927.46;;;26.51;41.42
62592;BME280;48659;41.622;2.276;2023-08-06T18:47:36;99930.55;;;26.31;41.88
62592;BME280;48659;41.622;2.276;2023-08-06T18:50:04;99932.62;;;25.56;42.67
62592;BME280;48659;41.622;2.276;2023-08-06T18:52:31;99933.22;;;26.04;42.09
62592;BME280;48659;41.622;2.276;2023-08-06T18:54:59;99936.77;;;25.63;43.13
62592;BME280;48659;41.622;2.276;2023-08-06T18:57:26;99928.62;;;26.44;41.43
62592;BME280;48659;41.622;2.276;2023-08-06T18:59:54;99932.00;;;26.63;41.54
62592;BME280;48659;41.622;2.276;2023-08-06T19:02:22;99926.44;;;25.93;42.26
62592;BME280;48659;41.622;2.276;2023-08-06T19:04:49;99925.25;;;26.65;41.49
62592;BME280;48659;41.622;2.276;2023-08-06T19:07:16;99930.51;;;25.25;43.17
62592;BME280;48659;41.622;2.276;2023-08-06T19:09:49;99932.82;;;25.55;42.87
62592;BME280;48659;41.622;2.276;2023-08-06T19:12:16;99935.57;;;25.24;43.51
62592;BME280;48659;41.622;2.276;2023-08-06T19:14:43;99937.10;;;26.07;42.60
62592;BME280;48659;41.622;2.276;2023-08-06T19:17:11;99940.35;;;25.42;43.53
62592;BME280;48659;41.622;2.276;2023-08-06T19:19:38;99940.71;;;25.22;43.99
62592;BME280;48659;41.622;2.276;2023-08-06T19:22:06;99943.51;;;25.62;43.11
62592;BME280;48659;41.622;2.276;2023-08-06T19:24:34;99946.95;;;25.67;42.98
62592;BME280;48659;41.622;2.276;2023-08-06T19:27:01;99953.63;;;25.96;42.40
62592;BME280;48659;41.622;2.276;2023-08-06T19:29:29;99955.36;;;25.51;42.51
62592;BME280;48659;41.622;2.276;2023-08-06T19:31:56;99955.42;;;26.64;41.11
62592;BME280;48659;41.622;2.276;2023-08-06T19:34:24;99953.44;;;26.30;41.52
62592;BME280;48659;41.622;2.276;2023-08-06T19:36:52;99956.68;;;26.36;41.15
62592;BME280;48659;41.622;2.276;2023-08-06T19:39:19;99956.61;;;25.88;41.73
62592;BME280;48659;41.622;2.276;2023-08-06T19:41:47;99960.96;;;25.93;41.50
62592;BME280;48659;41.622;2.276;2023-08-06T19:44:15;99965.85;;;26.16;40.82
62592;BME280;48659;41.622;2.276;2023-08-06T19:46:57;99969.07;;;26.22;41.13
62592;BME280;48659;41.622;2.276;2023-08-06T19:49:24;99972.68;;;26.56;39.96
62592;BME280;48659;41.622;2.276;2023-08-06T19:51:52;99977.66;;;25.65;40.81
62592;BME280;48659;41.622;2.276;2023-08-06T19:54:19;99974.78;;;26.94;39.25
62592;BME280;48659;41.622;2.276;2023-08-06T19:56:46;99976.53;;;26.68;39.65
62592;BME280;48659;41.622;2.276;2023-08-06T19:59:14;99981.16;;;26.73;39.58
62592;BME280;48659;41.622;2.276;2023-08-06T20:01:42;99982.65;;;26.92;39.46
62592;BME280;48659;41.622;2.276;2023-08-06T20:04:09;99985.31;;;26.10;40.56
62592;BME280;48659;41.622;2.276;2023-08-06T20:06:36;99983.00;;;26.60;40.17
62592;BME280;48659;41.622;2.276;2023-08-06T20:09:04;99985.92;;;26.66;39.90
62592;BME280;48659;41.622;2.276;2023-08-06T20:11:32;99987.02;;;26.14;40.60
62592;BME280;48659;41.622;2.276;2023-08-06T20:13:58;99991.59;;;25.88;40.31
62592;BME280;48659;41.622;2.276;2023-08-06T20:16:25;99995.79;;;26.26;40.22
62592;BME280;48659;41.622;2.276;2023-08-06T20:18:53;99995.54;;;26.40;40.12
62592;BME280;48659;41.622;2.276;2023-08-06T20:21:21;99996.44;;;26.65;39.59
62592;BME280;48659;41.622;2.276;2023-08-06T20:23:49;99997.30;;;26.92;39.24
62592;BME280;48659;41.622;2.276;2023-08-06T20:26:17;99996.13;;;26.96;39.15
62592;BME280;48659;41.622;2.276;2023-08-06T20:28:44;100003.00;;;27.01;39.38
62592;BME280;48659;41.622;2.276;2023-08-06T20:31:12;100006.78;;;27.02;38.85
62592;BME280;48659;41.622;2.276;2023-08-06T20:33:40;100004.24;;;27.40;38.65
62592;BME280;48659;41.622;2.276;2023-08-06T20:36:07;100010.44;;;26.40;39.08
62592;BME280;48659;41.622;2.276;2023-08-06T20:38:39;100010.42;;;27.09;38.58
62592;BME280;48659;41.622;2.276;2023-08-06T20:41:07;100014.30;;;26.98;38.78
62592;BME280;48659;41.622;2.276;2023-08-06T20:43:35;100018.18;;;26.34;39.72
62592;BME280;48659;41.622;2.276;2023-08-06T20:46:03;100018.38;;;26.66;39.46
62592;BME280;48659;41.622;2.276;2023-08-06T20:48:30;100017.57;;;26.66;39.32
62592;BME280;48659;41.622;2.276;2023-08-06T20:50:57;100020.52;;;26.46;39.55
62592;BME280;48659;41.622;2.276;2023-08-06T20:53:25;100021.28;;;26.38;39.48
62592;BME280;48659;41.622;2.276;2023-08-06T20:56:01;100021.87;;;26.70;38.92
62592;BME280;48659;41.622;2.276;2023-08-06T20:58:29;100022.69;;;25.92;39.69
62592;BME280;48659;41.622;2.276;2023-08-06T21:00:57;100021.26;;;27.14;38.66
62592;BME280;48659;41.622;2.276;2023-08-06T21:03:26;100024.52;;;26.96;38.95
62592;BME280;48659;41.622;2.276;2023-08-06T21:05:59;100023.18;;;26.66;38.81
62592;BME280;48659;41.622;2.276;2023-08-06T21:08:28;100019.22;;;26.67;39.05
62592;BME280;48659;41.622;2.276;2023-08-06T21:10:55;100016.94;;;26.83;38.95
62592;BME280;48659;41.622;2.276;2023-08-06T21:13:22;100016.30;;;26.66;39.41
62592;BME280;48659;41.622;2.276;2023-08-06T21:15:55;100018.01;;;26.61;39.18
62592;BME280;48659;41.622;2.276;2023-08-06T21:18:22;100020.02;;;26.59;40.10
62592;BME280;48659;41.622;2.276;2023-08-06T21:20:53;100018.15;;;26.29;39.34
62592;BME280;48659;41.622;2.276;2023-08-06T21:23:21;100018.97;;;27.11;39.24
62592;BME280;48659;41.622;2.276;2023-08-06T21:25:49;100021.82;;;27.12;38.66
62592;BME280;48659;41.622;2.276;2023-08-06T21:28:21;100019.86;;;26.91;39.11
62592;BME280;48659;41.622;2.276;2023-08-06T21:30:54;100022.87;;;26.50;39.69
62592;BME280;48659;41.622;2.276;2023-08-06T21:33:22;100023.89;;;26.36;39.81
62592;BME280;48659;41.622;2.276;2023-08-06T21:35:50;100025.57;;;26.64;39.07
62592;BME280;48659;41.622;2.276;2023-08-06T21:38:17;100030.45;;;26.38;39.88
62592;BME280;48659;41.622;2.276;2023-08-06T21:40:50;100026.84;;;26.87;38.95
62592;BME280;48659;41.622;2.276;2023-08-06T21:43:17;100030.13;;;26.45;39.65
62592;BME280;48659;41.622;2.276;2023-08-06T21:45:45;100031.74;;;26.07;40.32
62592;BME280;48659;41.622;2.276;2023-08-06T21:48:12;100028.91;;;26.59;39.49
62592;BME280;48659;41.622;2.276;2023-08-06T21:50:40;100032.74;;;26.39;39.81
62592;BME280;48659;41.622;2.276;2023-08-06T21:53:07;100035.17;;;26.12;40.28
62592;BME280;48659;41.622;2.276;2023-08-06T21:55:35;100031.70;;;25.81;40.93
62592;BME280;48659;41.622;2.276;2023-08-06T21:58:02;100033.79;;;25.39;42.02
62592;BME280;48659;41.622;2.276;2023-08-06T22:00:30;100037.46;;;25.86;40.59
62592;BME280;48659;41.622;2.276;2023-08-06T22:02:58;100036.88;;;26.22;40.46
62592;BME280;48659;41.622;2.276;2023-08-06T22:05:26;100033.34;;;26.88;39.62
62592;BME280;48659;41.622;2.276;2023-08-06T22:07:53;100037.13;;;25.93;40.63
62592;BME280;48659;41.622;2.276;2023-08-06T22:10:21;100037.08;;;25.95;40.52
62592;BME280;48659;41.622;2.276;2023-08-06T22:12:49;100038.35;;;25.84;40.15
62592;BME280;48659;41.622;2.276;2023-08-06T22:15:16;100038.49;;;25.80;40.19
62592;BME280;48659;41.622;2.276;2023-08-06T22:17:44;100048.37;;;23.82;43.65
62592;BME280;48659;41.622;2.276;2023-08-06T22:20:11;100050.27;;;23.39;45.71
62592;BME280;48659;41.622;2.276;2023-08-06T22:22:40;100048.76;;;23.06;47.49
62592;BME280;48659;41.622;2.276;2023-08-06T22:25:08;100051.91;;;21.88;50.13
62592;BME280;48659;41.622;2.276;2023-08-06T22:27:35;100049.03;;;22.32;50.21
62592;BME280;48659;41.622;2.276;2023-08-06T22:30:03;100047.29;;;22.73;47.86
62592;BME280;48659;41.622;2.276;2023-08-06T22:32:31;100049.39;;;22.52;48.53
62592;BME280;48659;41.622;2.276;2023-08-06T22:34:58;100052.83;;;24.16;45.98
62592;BME280;48659;41.622;2.276;2023-08-06T22:37:26;100053.03;;;24.34;44.55
62592;BME280;48659;41.622;2.276;2023-08-06T22:39:54;100054.10;;;23.89;44.80
62592;BME280;48659;41.622;2.276;2023-08-06T22:42:21;100055.34;;;23.61;44.98
62592;BME280;48659;41.622;2.276;2023-08-06T22:44:48;100055.47;;;22.12;48.10
62592;BME280;48659;41.622;2.276;2023-08-06T22:47:16;100055.65;;;22.14;49.05
62592;BME280;48659;41.622;2.276;2023-08-06T22:49:43;100060.57;;;21.65;50.68
62592;BME280;48659;41.622;2.276;2023-08-06T22:52:10;100060.20;;;21.59;49.99
62592;BME280;48659;41.622;2.276;2023-08-06T22:54:38;100057.71;;;21.79;50.18
62592;BME280;48659;41.622;2.276;2023-08-06T22:57:06;100052.95;;;22.62;47.94
62592;BME280;48659;41.622;2.276;2023-08-06T22:59:34;100050.50;;;21.74;48.35
62592;BME280;48659;41.622;2.276;2023-08-06T23:02:01;100048.77;;;22.44;48.42
62592;BME280;48659;41.622;2.276;2023-08-06T23:04:29;100046.86;;;22.77;47.40
62592;BME280;48659;41.622;2.276;2023-08-06T23:06:58;100047.31;;;23.36;46.18
62592;BME280;48659;41.622;2.276;2023-08-06T23:09:25;100046.00;;;22.66;46.84
62592;BME280;48659;41.622;2.276;2023-08-06T23:11:53;100044.00;;;23.01;45.98
62592;BME280;48659;41.622;2.276;2023-08-06T23:14:21;100048.45;;;23.87;44.26
62592;BME280;48659;41.622;2.276;2023-08-06T23:16:49;100053.09;;;21.01;50.52
62592;BME280;48659;41.622;2.276;2023-08-06T23:19:16;100052.99;;;21.53;50.69
62592;BME280;48659;41.622;2.276;2023-08-06T23:21:44;100047.86;;;22.59;48.48
62592;BME280;48659;41.622;2.276;2023-08-06T23:24:11;100045.62;;;23.34;46.58
62592;BME280;48659;41.622;2.276;2023-08-06T23:26:39;100046.66;;;21.28;50.17
62592;BME280;48659;41.622;2.276;2023-08-06T23:29:06;100043.04;;;22.43;48.32
62592;BME280;48659;41.622;2.276;2023-08-06T23:31:34;100044.26;;;22.34;48.44
62592;BME280;48659;41.622;2.276;2023-08-06T23:34:02;100050.55;;;21.61;49.99
62592;BME280;48659;41.622;2.276;2023-08-06T23:36:29;100052.69;;;22.41;48.81
62592;BME280;48659;41.622;2.276;2023-08-06T23:38:56;100047.85;;;22.74;47.67
62592;BME280;48659;41.622;2.276;2023-08-06T23:41:23;100054.84;;;20.74;52.82
62592;BME280;48659;41.622;2.276;2023-08-06T23:43:51;100053.47;;;21.58;51.44
62592;BME280;48659;41.622;2.276;2023-08-06T23:46:18;100052.39;;;21.29;52.34
62592;BME280;48659;41.622;2.276;2023-08-06T23:48:45;100053.55;;;21.75;51.26
62592;BME280;48659;41.622;2.276;2023-08-06T23:51:13;100059.30;;;20.06;55.46
62592;BME280;48659;41.622;2.276;2023-08-06T23:53:40;100053.15;;;21.83;51.51
62592;BME280;48659;41.622;2.276;2023-08-06T23:56:07;100049.00;;;22.68;49.56
62592;BME280;48659;41.622;2.276;2023-08-06T23:58:35;100051.79;;;21.69;51.15
